Terminal Aerodrome Forecast
Issued by NWS

Home | Current Version | Previous Version | Text Only | Print | Product List | Glossary On
Versions: 1 2 3 4 5 6 7 8 9 10 11 12 13 14 15 16 17 18
625
FTUS43 KLSX 251739
TAFSUS
TAF
KSUS 251739Z 2518/2618 24010KT P6SM SCT050 BKN120
     FM260000 28010KT 6SM -SHRA VCTS BKN050CB
     FM260500 31008KT P6SM VCSH BKN040
     FM261200 29007KT P6SM SCT040 BKN120
     FM261600 30011KT P6SM SKC=

USA.gov is the U.S. government's official web portal to all federal, state and local government web resources and services.